sensor_id;sensor_type;location;lat;lon;timestamp;P1;durP1;ratioP1;P2;durP2;ratioP2
52948;SDS011;38812;50.942;3.644;2022-08-25T00:01:46;5.53;;;4.87;;
52948;SDS011;38812;50.942;3.644;2022-08-25T00:04:16;5.70;;;4.65;;
52948;SDS011;38812;50.942;3.644;2022-08-25T00:06:42;7.93;;;4.90;;
52948;SDS011;38812;50.942;3.644;2022-08-25T00:09:09;8.48;;;5.30;;
52948;SDS011;38812;50.942;3.644;2022-08-25T00:11:37;6.47;;;4.30;;
52948;SDS011;38812;50.942;3.644;2022-08-25T00:14:05;4.55;;;4.15;;
52948;SDS011;38812;50.942;3.644;2022-08-25T00:16:34;9.50;;;5.28;;
52948;SDS011;38812;50.942;3.644;2022-08-25T00:19:02;9.45;;;4.57;;
52948;SDS011;38812;50.942;3.644;2022-08-25T00:21:30;8.07;;;5.18;;
52948;SDS011;38812;50.942;3.644;2022-08-25T00:23:56;8.02;;;6.20;;
52948;SDS011;38812;50.942;3.644;2022-08-25T00:26:22;8.07;;;5.13;;
52948;SDS011;38812;50.942;3.644;2022-08-25T00:28:48;11.52;;;4.90;;
52948;SDS011;38812;50.942;3.644;2022-08-25T00:31:15;6.43;;;4.90;;
52948;SDS011;38812;50.942;3.644;2022-08-25T00:33:43;8.18;;;4.38;;
52948;SDS011;38812;50.942;3.644;2022-08-25T00:36:09;6.40;;;5.22;;
52948;SDS011;38812;50.942;3.644;2022-08-25T00:38:38;7.85;;;4.65;;
52948;SDS011;38812;50.942;3.644;2022-08-25T00:41:05;5.15;;;4.63;;
52948;SDS011;38812;50.942;3.644;2022-08-25T00:46:05;6.35;;;4.78;;
52948;SDS011;38812;50.942;3.644;2022-08-25T00:48:31;5.07;;;4.57;;
52948;SDS011;38812;50.942;3.644;2022-08-25T00:50:57;5.93;;;4.40;;
52948;SDS011;38812;50.942;3.644;2022-08-25T00:53:23;6.93;;;4.95;;
52948;SDS011;38812;50.942;3.644;2022-08-25T00:55:48;5.20;;;4.70;;
52948;SDS011;38812;50.942;3.644;2022-08-25T00:58:15;5.68;;;4.95;;
52948;SDS011;38812;50.942;3.644;2022-08-25T01:00:48;9.43;;;5.35;;
52948;SDS011;38812;50.942;3.644;2022-08-25T01:03:15;7.55;;;5.50;;
52948;SDS011;38812;50.942;3.644;2022-08-25T01:05:43;7.75;;;6.25;;
52948;SDS011;38812;50.942;3.644;2022-08-25T01:08:10;11.77;;;5.25;;
52948;SDS011;38812;50.942;3.644;2022-08-25T01:10:37;8.07;;;5.43;;
52948;SDS011;38812;50.942;3.644;2022-08-25T01:13:11;6.10;;;5.47;;
52948;SDS011;38812;50.942;3.644;2022-08-25T01:15:39;5.40;;;4.90;;
52948;SDS011;38812;50.942;3.644;2022-08-25T01:18:05;8.60;;;5.57;;
52948;SDS011;38812;50.942;3.644;2022-08-25T01:20:31;7.43;;;5.78;;
52948;SDS011;38812;50.942;3.644;2022-08-25T01:22:58;7.68;;;6.22;;
52948;SDS011;38812;50.942;3.644;2022-08-25T01:25:38;10.00;;;5.93;;
52948;SDS011;38812;50.942;3.644;2022-08-25T01:28:09;8.05;;;6.25;;
52948;SDS011;38812;50.942;3.644;2022-08-25T01:30:35;9.95;;;7.00;;
52948;SDS011;38812;50.942;3.644;2022-08-25T01:33:02;9.15;;;7.32;;
52948;SDS011;38812;50.942;3.644;2022-08-25T01:35:29;12.00;;;7.60;;
52948;SDS011;38812;50.942;3.644;2022-08-25T01:37:54;8.20;;;6.90;;
52948;SDS011;38812;50.942;3.644;2022-08-25T01:40:20;8.77;;;7.15;;
52948;SDS011;38812;50.942;3.644;2022-08-25T01:45:18;9.45;;;7.32;;
52948;SDS011;38812;50.942;3.644;2022-08-25T01:47:45;9.30;;;6.07;;
52948;SDS011;38812;50.942;3.644;2022-08-25T01:50:10;8.10;;;6.82;;
52948;SDS011;38812;50.942;3.644;2022-08-25T01:52:38;10.15;;;6.65;;
52948;SDS011;38812;50.942;3.644;2022-08-25T01:55:09;10.93;;;6.70;;
52948;SDS011;38812;50.942;3.644;2022-08-25T01:57:34;7.95;;;6.75;;
52948;SDS011;38812;50.942;3.644;2022-08-25T01:59:59;9.73;;;7.32;;
52948;SDS011;38812;50.942;3.644;2022-08-25T02:02:25;13.13;;;6.47;;
52948;SDS011;38812;50.942;3.644;2022-08-25T02:04:50;9.45;;;6.97;;
52948;SDS011;38812;50.942;3.644;2022-08-25T02:07:16;10.48;;;6.95;;
52948;SDS011;38812;50.942;3.644;2022-08-25T02:09:41;10.40;;;6.57;;
52948;SDS011;38812;50.942;3.644;2022-08-25T02:12:08;6.53;;;5.82;;
52948;SDS011;38812;50.942;3.644;2022-08-25T02:14:33;8.93;;;6.15;;
52948;SDS011;38812;50.942;3.644;2022-08-25T02:17:00;8.55;;;6.95;;
52948;SDS011;38812;50.942;3.644;2022-08-25T02:19:27;9.95;;;6.57;;
52948;SDS011;38812;50.942;3.644;2022-08-25T02:21:54;9.18;;;7.40;;
52948;SDS011;38812;50.942;3.644;2022-08-25T02:24:20;9.48;;;7.13;;
52948;SDS011;38812;50.942;3.644;2022-08-25T02:26:45;14.15;;;7.93;;
52948;SDS011;38812;50.942;3.644;2022-08-25T02:29:11;9.43;;;8.13;;
52948;SDS011;38812;50.942;3.644;2022-08-25T02:31:36;11.93;;;7.25;;
52948;SDS011;38812;50.942;3.644;2022-08-25T02:34:03;12.90;;;7.40;;
52948;SDS011;38812;50.942;3.644;2022-08-25T02:36:29;8.25;;;7.40;;
52948;SDS011;38812;50.942;3.644;2022-08-25T02:38:56;8.07;;;7.28;;
52948;SDS011;38812;50.942;3.644;2022-08-25T02:41:23;13.90;;;7.25;;
52948;SDS011;38812;50.942;3.644;2022-08-25T02:43:49;10.23;;;6.43;;
52948;SDS011;38812;50.942;3.644;2022-08-25T02:46:15;9.73;;;5.88;;
52948;SDS011;38812;50.942;3.644;2022-08-25T02:48:43;10.80;;;7.57;;
52948;SDS011;38812;50.942;3.644;2022-08-25T02:51:09;10.90;;;8.98;;
52948;SDS011;38812;50.942;3.644;2022-08-25T02:53:36;8.95;;;8.05;;
52948;SDS011;38812;50.942;3.644;2022-08-25T02:56:06;8.98;;;8.05;;
52948;SDS011;38812;50.942;3.644;2022-08-25T02:58:33;9.35;;;8.27;;
52948;SDS011;38812;50.942;3.644;2022-08-25T03:00:59;8.48;;;7.65;;
52948;SDS011;38812;50.942;3.644;2022-08-25T03:03:25;10.73;;;8.55;;
52948;SDS011;38812;50.942;3.644;2022-08-25T03:05:50;10.73;;;8.02;;
52948;SDS011;38812;50.942;3.644;2022-08-25T03:08:16;8.75;;;7.40;;
52948;SDS011;38812;50.942;3.644;2022-08-25T03:10:41;9.45;;;8.27;;
52948;SDS011;38812;50.942;3.644;2022-08-25T03:13:07;11.10;;;7.95;;
52948;SDS011;38812;50.942;3.644;2022-08-25T03:15:32;16.77;;;8.80;;
52948;SDS011;38812;50.942;3.644;2022-08-25T03:18:01;8.98;;;7.50;;
52948;SDS011;38812;50.942;3.644;2022-08-25T03:20:27;10.05;;;8.32;;
52948;SDS011;38812;50.942;3.644;2022-08-25T03:22:53;10.88;;;7.13;;
52948;SDS011;38812;50.942;3.644;2022-08-25T03:25:19;8.75;;;7.50;;
52948;SDS011;38812;50.942;3.644;2022-08-25T03:28:05;8.82;;;7.47;;
52948;SDS011;38812;50.942;3.644;2022-08-25T03:30:31;10.80;;;8.18;;
52948;SDS011;38812;50.942;3.644;2022-08-25T03:32:57;9.57;;;8.57;;
52948;SDS011;38812;50.942;3.644;2022-08-25T03:35:22;11.88;;;10.20;;
52948;SDS011;38812;50.942;3.644;2022-08-25T03:37:47;14.55;;;9.63;;
52948;SDS011;38812;50.942;3.644;2022-08-25T03:40:14;14.52;;;10.57;;
52948;SDS011;38812;50.942;3.644;2022-08-25T03:42:42;12.18;;;10.82;;
52948;SDS011;38812;50.942;3.644;2022-08-25T03:45:08;11.55;;;10.43;;
52948;SDS011;38812;50.942;3.644;2022-08-25T03:47:38;12.93;;;9.70;;
52948;SDS011;38812;50.942;3.644;2022-08-25T03:50:05;10.85;;;9.55;;
52948;SDS011;38812;50.942;3.644;2022-08-25T03:52:32;9.02;;;8.18;;
52948;SDS011;38812;50.942;3.644;2022-08-25T03:54:58;7.65;;;6.90;;
52948;SDS011;38812;50.942;3.644;2022-08-25T03:57:23;7.32;;;6.63;;
52948;SDS011;38812;50.942;3.644;2022-08-25T03:59:49;8.23;;;7.43;;
52948;SDS011;38812;50.942;3.644;2022-08-25T04:02:14;8.55;;;7.75;;
52948;SDS011;38812;50.942;3.644;2022-08-25T04:04:39;8.48;;;7.75;;
52948;SDS011;38812;50.942;3.644;2022-08-25T04:07:05;8.48;;;7.47;;
52948;SDS011;38812;50.942;3.644;2022-08-25T04:09:31;11.75;;;8.52;;
52948;SDS011;38812;50.942;3.644;2022-08-25T04:11:56;9.52;;;7.63;;
52948;SDS011;38812;50.942;3.644;2022-08-25T04:14:22;10.05;;;8.02;;
52948;SDS011;38812;50.942;3.644;2022-08-25T04:16:47;9.45;;;8.45;;
52948;SDS011;38812;50.942;3.644;2022-08-25T04:19:13;13.85;;;11.05;;
52948;SDS011;38812;50.942;3.644;2022-08-25T04:21:39;12.88;;;10.98;;
52948;SDS011;38812;50.942;3.644;2022-08-25T04:24:06;10.75;;;9.65;;
52948;SDS011;38812;50.942;3.644;2022-08-25T04:26:34;10.80;;;9.77;;
52948;SDS011;38812;50.942;3.644;2022-08-25T04:29:03;11.27;;;10.18;;
52948;SDS011;38812;50.942;3.644;2022-08-25T04:31:30;12.55;;;11.25;;
52948;SDS011;38812;50.942;3.644;2022-08-25T04:33:56;11.82;;;10.63;;
52948;SDS011;38812;50.942;3.644;2022-08-25T04:36:22;14.07;;;11.98;;
52948;SDS011;38812;50.942;3.644;2022-08-25T04:38:48;12.88;;;11.52;;
52948;SDS011;38812;50.942;3.644;2022-08-25T04:41:15;15.23;;;11.35;;
52948;SDS011;38812;50.942;3.644;2022-08-25T04:43:42;15.88;;;12.57;;
52948;SDS011;38812;50.942;3.644;2022-08-25T04:46:16;13.80;;;12.32;;
52948;SDS011;38812;50.942;3.644;2022-08-25T04:48:43;15.50;;;13.05;;
52948;SDS011;38812;50.942;3.644;2022-08-25T04:51:10;15.60;;;13.13;;
52948;SDS011;38812;50.942;3.644;2022-08-25T04:53:38;19.08;;;13.82;;
52948;SDS011;38812;50.942;3.644;2022-08-25T04:56:05;14.48;;;12.10;;
52948;SDS011;38812;50.942;3.644;2022-08-25T04:58:32;22.65;;;12.70;;
52948;SDS011;38812;50.942;3.644;2022-08-25T05:01:02;14.15;;;12.68;;
52948;SDS011;38812;50.942;3.644;2022-08-25T05:03:29;22.73;;;14.20;;
52948;SDS011;38812;50.942;3.644;2022-08-25T05:05:55;24.73;;;13.18;;
52948;SDS011;38812;50.942;3.644;2022-08-25T05:08:21;29.40;;;13.77;;
52948;SDS011;38812;50.942;3.644;2022-08-25T05:10:46;25.25;;;12.82;;
52948;SDS011;38812;50.942;3.644;2022-08-25T05:13:12;26.10;;;12.23;;
52948;SDS011;38812;50.942;3.644;2022-08-25T05:15:37;15.65;;;11.27;;
52948;SDS011;38812;50.942;3.644;2022-08-25T05:18:15;17.02;;;10.52;;
52948;SDS011;38812;50.942;3.644;2022-08-25T05:20:41;17.30;;;11.07;;
52948;SDS011;38812;50.942;3.644;2022-08-25T05:23:06;15.63;;;10.88;;
52948;SDS011;38812;50.942;3.644;2022-08-25T05:25:32;16.27;;;10.57;;
52948;SDS011;38812;50.942;3.644;2022-08-25T05:27:57;14.02;;;11.60;;
52948;SDS011;38812;50.942;3.644;2022-08-25T05:30:23;18.98;;;11.95;;
52948;SDS011;38812;50.942;3.644;2022-08-25T05:32:48;14.75;;;11.75;;
52948;SDS011;38812;50.942;3.644;2022-08-25T05:35:14;15.45;;;12.00;;
52948;SDS011;38812;50.942;3.644;2022-08-25T05:37:40;13.65;;;12.20;;
52948;SDS011;38812;50.942;3.644;2022-08-25T05:40:06;14.48;;;11.65;;
52948;SDS011;38812;50.942;3.644;2022-08-25T05:42:32;12.60;;;11.38;;
52948;SDS011;38812;50.942;3.644;2022-08-25T05:44:57;12.75;;;11.48;;
52948;SDS011;38812;50.942;3.644;2022-08-25T05:47:23;12.88;;;11.55;;
52948;SDS011;38812;50.942;3.644;2022-08-25T05:49:48;13.23;;;11.80;;
52948;SDS011;38812;50.942;3.644;2022-08-25T05:52:14;11.13;;;10.02;;
52948;SDS011;38812;50.942;3.644;2022-08-25T05:54:39;20.02;;;12.20;;
52948;SDS011;38812;50.942;3.644;2022-08-25T05:57:05;13.52;;;11.13;;
52948;SDS011;38812;50.942;3.644;2022-08-25T05:59:31;13.15;;;11.68;;
52948;SDS011;38812;50.942;3.644;2022-08-25T06:01:57;16.23;;;11.32;;
52948;SDS011;38812;50.942;3.644;2022-08-25T06:04:41;12.90;;;11.60;;
52948;SDS011;38812;50.942;3.644;2022-08-25T06:07:07;16.83;;;12.68;;
52948;SDS011;38812;50.942;3.644;2022-08-25T06:09:33;13.70;;;12.30;;
52948;SDS011;38812;50.942;3.644;2022-08-25T06:11:58;16.52;;;12.07;;
52948;SDS011;38812;50.942;3.644;2022-08-25T06:14:24;18.05;;;12.98;;
52948;SDS011;38812;50.942;3.644;2022-08-25T06:16:49;16.60;;;11.57;;
52948;SDS011;38812;50.942;3.644;2022-08-25T06:19:16;16.85;;;12.70;;
52948;SDS011;38812;50.942;3.644;2022-08-25T06:21:41;20.25;;;12.55;;
52948;SDS011;38812;50.942;3.644;2022-08-25T06:24:08;23.95;;;13.32;;
52948;SDS011;38812;50.942;3.644;2022-08-25T06:26:34;22.35;;;12.23;;
52948;SDS011;38812;50.942;3.644;2022-08-25T06:29:00;27.17;;;11.50;;
52948;SDS011;38812;50.942;3.644;2022-08-25T06:31:26;17.58;;;11.63;;
52948;SDS011;38812;50.942;3.644;2022-08-25T06:33:51;19.50;;;11.02;;
52948;SDS011;38812;50.942;3.644;2022-08-25T06:36:17;19.73;;;11.40;;
52948;SDS011;38812;50.942;3.644;2022-08-25T06:38:43;16.35;;;11.23;;
52948;SDS011;38812;50.942;3.644;2022-08-25T06:41:10;17.60;;;11.77;;
52948;SDS011;38812;50.942;3.644;2022-08-25T06:43:36;12.07;;;10.20;;
52948;SDS011;38812;50.942;3.644;2022-08-25T06:46:07;17.27;;;10.57;;
52948;SDS011;38812;50.942;3.644;2022-08-25T06:48:35;13.27;;;10.77;;
52948;SDS011;38812;50.942;3.644;2022-08-25T06:51:08;19.80;;;12.55;;
52948;SDS011;38812;50.942;3.644;2022-08-25T06:53:36;12.73;;;10.05;;
52948;SDS011;38812;50.942;3.644;2022-08-25T06:56:02;16.83;;;10.45;;
52948;SDS011;38812;50.942;3.644;2022-08-25T06:58:28;14.40;;;10.45;;
52948;SDS011;38812;50.942;3.644;2022-08-25T07:00:54;14.00;;;9.32;;
52948;SDS011;38812;50.942;3.644;2022-08-25T07:03:20;16.20;;;8.55;;
52948;SDS011;38812;50.942;3.644;2022-08-25T07:05:52;12.13;;;6.72;;
52948;SDS011;38812;50.942;3.644;2022-08-25T07:08:19;8.98;;;5.55;;
52948;SDS011;38812;50.942;3.644;2022-08-25T07:10:44;7.25;;;4.38;;
52948;SDS011;38812;50.942;3.644;2022-08-25T07:13:10;9.98;;;3.72;;
52948;SDS011;38812;50.942;3.644;2022-08-25T07:15:37;5.38;;;3.53;;
52948;SDS011;38812;50.942;3.644;2022-08-25T07:18:03;6.93;;;3.25;;
52948;SDS011;38812;50.942;3.644;2022-08-25T07:20:28;3.88;;;3.05;;
52948;SDS011;38812;50.942;3.644;2022-08-25T07:22:55;4.40;;;2.83;;
52948;SDS011;38812;50.942;3.644;2022-08-25T07:25:21;5.10;;;3.28;;
52948;SDS011;38812;50.942;3.644;2022-08-25T07:27:47;9.63;;;3.00;;
52948;SDS011;38812;50.942;3.644;2022-08-25T07:30:13;6.07;;;2.90;;
52948;SDS011;38812;50.942;3.644;2022-08-25T07:32:39;7.00;;;2.72;;
52948;SDS011;38812;50.942;3.644;2022-08-25T07:35:04;5.05;;;3.10;;
52948;SDS011;38812;50.942;3.644;2022-08-25T07:37:39;7.10;;;2.92;;
52948;SDS011;38812;50.942;3.644;2022-08-25T07:40:07;4.88;;;2.55;;
52948;SDS011;38812;50.942;3.644;2022-08-25T07:42:33;8.90;;;2.72;;
52948;SDS011;38812;50.942;3.644;2022-08-25T07:44:59;8.20;;;2.17;;
52948;SDS011;38812;50.942;3.644;2022-08-25T07:47:25;6.22;;;2.42;;
52948;SDS011;38812;50.942;3.644;2022-08-25T07:49:51;10.23;;;2.95;;
52948;SDS011;38812;50.942;3.644;2022-08-25T07:52:16;6.05;;;2.40;;
52948;SDS011;38812;50.942;3.644;2022-08-25T07:54:41;2.75;;;1.88;;
52948;SDS011;38812;50.942;3.644;2022-08-25T07:57:07;3.15;;;2.20;;
52948;SDS011;38812;50.942;3.644;2022-08-25T07:59:34;12.85;;;2.40;;
52948;SDS011;38812;50.942;3.644;2022-08-25T08:02:03;10.63;;;2.35;;
52948;SDS011;38812;50.942;3.644;2022-08-25T08:04:28;8.25;;;2.38;;
52948;SDS011;38812;50.942;3.644;2022-08-25T08:06:54;3.10;;;1.73;;
52948;SDS011;38812;50.942;3.644;2022-08-25T08:09:19;12.10;;;2.70;;
52948;SDS011;38812;50.942;3.644;2022-08-25T08:11:44;4.13;;;2.17;;
52948;SDS011;38812;50.942;3.644;2022-08-25T08:14:10;3.63;;;1.85;;
52948;SDS011;38812;50.942;3.644;2022-08-25T08:16:37;12.10;;;2.38;;
52948;SDS011;38812;50.942;3.644;2022-08-25T08:19:03;4.18;;;2.47;;
52948;SDS011;38812;50.942;3.644;2022-08-25T08:21:31;6.75;;;2.20;;
52948;SDS011;38812;50.942;3.644;2022-08-25T08:23:58;11.52;;;2.83;;
52948;SDS011;38812;50.942;3.644;2022-08-25T08:26:24;4.63;;;2.33;;
52948;SDS011;38812;50.942;3.644;2022-08-25T08:28:50;7.15;;;2.55;;
52948;SDS011;38812;50.942;3.644;2022-08-25T08:31:19;2.30;;;1.88;;
52948;SDS011;38812;50.942;3.644;2022-08-25T08:33:46;6.55;;;1.58;;
52948;SDS011;38812;50.942;3.644;2022-08-25T08:36:13;7.32;;;1.83;;
52948;SDS011;38812;50.942;3.644;2022-08-25T08:38:39;5.65;;;1.65;;
52948;SDS011;38812;50.942;3.644;2022-08-25T08:46:48;5.13;;;1.73;;
52948;SDS011;38812;50.942;3.644;2022-08-25T08:52:09;4.10;;;1.80;;
52948;SDS011;38812;50.942;3.644;2022-08-25T08:54:39;10.30;;;1.75;;
52948;SDS011;38812;50.942;3.644;2022-08-25T08:59:48;5.75;;;1.50;;
52948;SDS011;38812;50.942;3.644;2022-08-25T09:03:02;4.53;;;2.08;;
52948;SDS011;38812;50.942;3.644;2022-08-25T09:05:26;3.20;;;1.40;;
52948;SDS011;38812;50.942;3.644;2022-08-25T09:07:55;5.22;;;1.40;;
52948;SDS011;38812;50.942;3.644;2022-08-25T09:10:25;3.92;;;1.70;;
52948;SDS011;38812;50.942;3.644;2022-08-25T09:13:00;5.10;;;2.00;;
52948;SDS011;38812;50.942;3.644;2022-08-25T09:15:54;7.45;;;2.38;;
52948;SDS011;38812;50.942;3.644;2022-08-25T09:21:30;4.45;;;1.80;;
52948;SDS011;38812;50.942;3.644;2022-08-25T09:26:38;8.48;;;1.80;;
52948;SDS011;38812;50.942;3.644;2022-08-25T09:29:18;6.97;;;1.75;;
52948;SDS011;38812;50.942;3.644;2022-08-25T09:31:48;3.70;;;1.60;;
52948;SDS011;38812;50.942;3.644;2022-08-25T09:34:20;1.58;;;1.27;;
52948;SDS011;38812;50.942;3.644;2022-08-25T09:36:48;7.85;;;1.73;;
52948;SDS011;38812;50.942;3.644;2022-08-25T09:39:16;3.53;;;1.73;;
52948;SDS011;38812;50.942;3.644;2022-08-25T09:41:47;3.10;;;1.63;;
52948;SDS011;38812;50.942;3.644;2022-08-25T09:44:38;5.32;;;1.63;;
52948;SDS011;38812;50.942;3.644;2022-08-25T09:47:12;4.72;;;1.50;;
52948;SDS011;38812;50.942;3.644;2022-08-25T09:49:45;5.88;;;1.55;;
52948;SDS011;38812;50.942;3.644;2022-08-25T09:54:56;1.50;;;1.30;;
52948;SDS011;38812;50.942;3.644;2022-08-25T09:57:42;5.15;;;1.58;;
52948;SDS011;38812;50.942;3.644;2022-08-25T10:00:09;10.02;;;1.92;;
52948;SDS011;38812;50.942;3.644;2022-08-25T10:02:38;4.45;;;1.40;;
52948;SDS011;38812;50.942;3.644;2022-08-25T10:05:26;3.92;;;1.75;;
52948;SDS011;38812;50.942;3.644;2022-08-25T10:07:55;7.10;;;1.67;;
52948;SDS011;38812;50.942;3.644;2022-08-25T10:10:26;4.13;;;1.58;;
52948;SDS011;38812;50.942;3.644;2022-08-25T10:13:16;3.85;;;1.35;;
52948;SDS011;38812;50.942;3.644;2022-08-25T10:15:43;3.97;;;1.38;;
52948;SDS011;38812;50.942;3.644;2022-08-25T10:18:28;2.63;;;1.58;;
52948;SDS011;38812;50.942;3.644;2022-08-25T10:21:13;5.53;;;1.90;;
52948;SDS011;38812;50.942;3.644;2022-08-25T10:23:44;1.65;;;1.50;;
52948;SDS011;38812;50.942;3.644;2022-08-25T10:26:27;5.78;;;1.70;;
52948;SDS011;38812;50.942;3.644;2022-08-25T10:29:39;9.38;;;1.60;;
52948;SDS011;38812;50.942;3.644;2022-08-25T10:32:10;7.03;;;1.60;;
52948;SDS011;38812;50.942;3.644;2022-08-25T10:34:52;2.08;;;1.30;;
52948;SDS011;38812;50.942;3.644;2022-08-25T10:42:29;2.10;;;1.30;;
52948;SDS011;38812;50.942;3.644;2022-08-25T10:48:09;8.10;;;1.90;;
52948;SDS011;38812;50.942;3.644;2022-08-25T10:50:55;8.25;;;1.70;;
52948;SDS011;38812;50.942;3.644;2022-08-25T10:53:29;12.23;;;1.52;;
52948;SDS011;38812;50.942;3.644;2022-08-25T10:56:08;9.57;;;1.70;;
52948;SDS011;38812;50.942;3.644;2022-08-25T11:04:08;5.55;;;2.15;;
52948;SDS011;38812;50.942;3.644;2022-08-25T11:09:11;5.88;;;2.33;;
52948;SDS011;38812;50.942;3.644;2022-08-25T11:16:50;10.43;;;2.70;;
52948;SDS011;38812;50.942;3.644;2022-08-25T11:19:28;7.53;;;2.40;;
52948;SDS011;38812;50.942;3.644;2022-08-25T11:22:16;7.38;;;2.45;;
52948;SDS011;38812;50.942;3.644;2022-08-25T11:27:42;9.00;;;2.03;;
52948;SDS011;38812;50.942;3.644;2022-08-25T11:32:39;10.50;;;2.10;;
52948;SDS011;38812;50.942;3.644;2022-08-25T11:35:10;3.15;;;2.13;;
52948;SDS011;38812;50.942;3.644;2022-08-25T11:37:42;5.75;;;2.67;;
52948;SDS011;38812;50.942;3.644;2022-08-25T11:40:20;12.10;;;3.25;;
52948;SDS011;38812;50.942;3.644;2022-08-25T11:51:25;7.10;;;3.08;;
52948;SDS011;38812;50.942;3.644;2022-08-25T11:54:05;6.63;;;3.08;;
52948;SDS011;38812;50.942;3.644;2022-08-25T11:56:37;10.00;;;3.38;;
52948;SDS011;38812;50.942;3.644;2022-08-25T11:59:06;12.40;;;2.88;;
52948;SDS011;38812;50.942;3.644;2022-08-25T12:10:06;11.85;;;4.60;;
52948;SDS011;38812;50.942;3.644;2022-08-25T12:12:35;10.75;;;4.25;;
52948;SDS011;38812;50.942;3.644;2022-08-25T12:18:08;8.00;;;3.90;;
52948;SDS011;38812;50.942;3.644;2022-08-25T12:26:02;13.35;;;4.28;;
52948;SDS011;38812;50.942;3.644;2022-08-25T12:31:15;13.40;;;4.70;;
52948;SDS011;38812;50.942;3.644;2022-08-25T12:34:09;7.85;;;3.67;;
52948;SDS011;38812;50.942;3.644;2022-08-25T12:36:39;10.07;;;4.32;;
52948;SDS011;38812;50.942;3.644;2022-08-25T12:39:22;7.50;;;4.22;;
52948;SDS011;38812;50.942;3.644;2022-08-25T12:42:03;9.90;;;5.07;;
52948;SDS011;38812;50.942;3.644;2022-08-25T12:44:35;9.23;;;4.10;;
52948;SDS011;38812;50.942;3.644;2022-08-25T12:47:26;11.65;;;4.57;;
52948;SDS011;38812;50.942;3.644;2022-08-25T12:52:49;14.32;;;4.68;;
52948;SDS011;38812;50.942;3.644;2022-08-25T12:55:15;10.15;;;4.22;;
52948;SDS011;38812;50.942;3.644;2022-08-25T12:57:43;7.32;;;3.45;;
52948;SDS011;38812;50.942;3.644;2022-08-25T13:00:16;10.90;;;4.07;;
52948;SDS011;38812;50.942;3.644;2022-08-25T13:08:40;8.50;;;4.75;;
52948;SDS011;38812;50.942;3.644;2022-08-25T13:14:22;8.00;;;5.82;;
52948;SDS011;38812;50.942;3.644;2022-08-25T13:17:01;10.52;;;7.50;;
52948;SDS011;38812;50.942;3.644;2022-08-25T13:19:27;8.50;;;6.90;;
52948;SDS011;38812;50.942;3.644;2022-08-25T13:21:53;12.00;;;5.45;;
52948;SDS011;38812;50.942;3.644;2022-08-25T13:24:23;8.00;;;5.70;;
52948;SDS011;38812;50.942;3.644;2022-08-25T13:27:02;7.85;;;5.68;;
52948;SDS011;38812;50.942;3.644;2022-08-25T13:29:32;16.33;;;5.72;;
52948;SDS011;38812;50.942;3.644;2022-08-25T13:34:39;11.57;;;5.45;;
52948;SDS011;38812;50.942;3.644;2022-08-25T13:37:06;20.77;;;7.22;;
52948;SDS011;38812;50.942;3.644;2022-08-25T13:42:33;16.03;;;6.27;;
52948;SDS011;38812;50.942;3.644;2022-08-25T13:45:00;50.33;;;9.15;;
52948;SDS011;38812;50.942;3.644;2022-08-25T13:50:13;25.25;;;9.55;;
52948;SDS011;38812;50.942;3.644;2022-08-25T13:55:05;21.35;;;11.63;;
52948;SDS011;38812;50.942;3.644;2022-08-25T13:57:30;23.60;;;11.15;;
52948;SDS011;38812;50.942;3.644;2022-08-25T14:00:01;20.70;;;13.15;;
52948;SDS011;38812;50.942;3.644;2022-08-25T14:02:50;18.95;;;13.05;;
52948;SDS011;38812;50.942;3.644;2022-08-25T14:05:29;19.67;;;12.82;;
52948;SDS011;38812;50.942;3.644;2022-08-25T14:07:58;35.50;;;13.45;;
52948;SDS011;38812;50.942;3.644;2022-08-25T14:10:31;44.13;;;14.18;;
52948;SDS011;38812;50.942;3.644;2022-08-25T14:13:07;31.13;;;17.55;;
52948;SDS011;38812;50.942;3.644;2022-08-25T14:15:41;30.95;;;16.52;;
52948;SDS011;38812;50.942;3.644;2022-08-25T14:20:46;35.22;;;17.60;;
52948;SDS011;38812;50.942;3.644;2022-08-25T14:23:16;31.15;;;19.00;;
52948;SDS011;38812;50.942;3.644;2022-08-25T14:25:45;26.67;;;20.20;;
52948;SDS011;38812;50.942;3.644;2022-08-25T14:28:14;26.88;;;17.73;;
52948;SDS011;38812;50.942;3.644;2022-08-25T14:30:45;23.50;;;18.15;;
52948;SDS011;38812;50.942;3.644;2022-08-25T14:33:23;23.30;;;18.73;;
52948;SDS011;38812;50.942;3.644;2022-08-25T14:35:54;24.05;;;15.57;;
52948;SDS011;38812;50.942;3.644;2022-08-25T14:38:23;19.83;;;13.07;;
52948;SDS011;38812;50.942;3.644;2022-08-25T14:40:49;28.15;;;13.02;;
52948;SDS011;38812;50.942;3.644;2022-08-25T14:43:15;27.35;;;13.73;;
52948;SDS011;38812;50.942;3.644;2022-08-25T14:45:42;36.83;;;12.90;;
52948;SDS011;38812;50.942;3.644;2022-08-25T14:48:12;42.58;;;12.15;;
52948;SDS011;38812;50.942;3.644;2022-08-25T14:50:44;37.03;;;11.82;;
52948;SDS011;38812;50.942;3.644;2022-08-25T14:53:10;17.08;;;10.85;;
52948;SDS011;38812;50.942;3.644;2022-08-25T14:55:36;36.97;;;11.27;;
52948;SDS011;38812;50.942;3.644;2022-08-25T14:58:02;15.65;;;9.80;;
52948;SDS011;38812;50.942;3.644;2022-08-25T15:00:28;16.55;;;8.50;;
52948;SDS011;38812;50.942;3.644;2022-08-25T15:02:53;16.42;;;9.98;;
52948;SDS011;38812;50.942;3.644;2022-08-25T15:05:20;17.90;;;8.63;;
52948;SDS011;38812;50.942;3.644;2022-08-25T15:07:50;31.73;;;10.45;;
52948;SDS011;38812;50.942;3.644;2022-08-25T15:10:36;19.63;;;7.40;;
52948;SDS011;38812;50.942;3.644;2022-08-25T15:13:01;24.73;;;9.05;;
52948;SDS011;38812;50.942;3.644;2022-08-25T15:15:26;17.95;;;8.18;;
52948;SDS011;38812;50.942;3.644;2022-08-25T15:17:52;25.05;;;8.30;;
52948;SDS011;38812;50.942;3.644;2022-08-25T15:20:18;12.32;;;7.68;;
52948;SDS011;38812;50.942;3.644;2022-08-25T15:22:44;17.92;;;7.40;;
52948;SDS011;38812;50.942;3.644;2022-08-25T15:25:09;18.05;;;7.40;;
52948;SDS011;38812;50.942;3.644;2022-08-25T15:27:35;12.23;;;7.88;;
52948;SDS011;38812;50.942;3.644;2022-08-25T15:30:01;16.67;;;6.40;;
52948;SDS011;38812;50.942;3.644;2022-08-25T15:32:27;20.50;;;8.02;;
52948;SDS011;38812;50.942;3.644;2022-08-25T15:34:52;26.08;;;7.65;;
52948;SDS011;38812;50.942;3.644;2022-08-25T15:37:18;19.30;;;7.32;;
52948;SDS011;38812;50.942;3.644;2022-08-25T15:39:44;20.67;;;7.55;;
52948;SDS011;38812;50.942;3.644;2022-08-25T15:42:11;27.30;;;8.10;;
52948;SDS011;38812;50.942;3.644;2022-08-25T15:44:37;19.10;;;7.15;;
52948;SDS011;38812;50.942;3.644;2022-08-25T15:47:03;18.83;;;6.88;;
52948;SDS011;38812;50.942;3.644;2022-08-25T15:49:29;15.77;;;7.60;;
52948;SDS011;38812;50.942;3.644;2022-08-25T15:51:54;16.40;;;7.13;;
52948;SDS011;38812;50.942;3.644;2022-08-25T15:54:21;23.02;;;8.73;;
52948;SDS011;38812;50.942;3.644;2022-08-25T15:56:48;20.85;;;8.07;;
52948;SDS011;38812;50.942;3.644;2022-08-25T15:59:14;26.40;;;8.55;;
52948;SDS011;38812;50.942;3.644;2022-08-25T16:01:39;23.65;;;9.55;;
52948;SDS011;38812;50.942;3.644;2022-08-25T16:04:05;16.80;;;9.13;;
52948;SDS011;38812;50.942;3.644;2022-08-25T16:06:31;25.02;;;10.55;;
52948;SDS011;38812;50.942;3.644;2022-08-25T16:08:56;22.55;;;9.73;;
52948;SDS011;38812;50.942;3.644;2022-08-25T16:11:23;15.38;;;8.43;;
52948;SDS011;38812;50.942;3.644;2022-08-25T16:13:51;21.58;;;8.65;;
52948;SDS011;38812;50.942;3.644;2022-08-25T16:16:17;15.18;;;8.98;;
52948;SDS011;38812;50.942;3.644;2022-08-25T16:18:44;18.00;;;7.88;;
52948;SDS011;38812;50.942;3.644;2022-08-25T16:21:11;21.10;;;9.40;;
52948;SDS011;38812;50.942;3.644;2022-08-25T16:23:38;22.27;;;9.60;;
52948;SDS011;38812;50.942;3.644;2022-08-25T16:26:05;19.90;;;9.18;;
52948;SDS011;38812;50.942;3.644;2022-08-25T16:28:33;22.05;;;10.48;;
52948;SDS011;38812;50.942;3.644;2022-08-25T16:30:59;27.30;;;9.95;;